createdAt,value
2022-08-04T00:02:24.572Z,93.72
2022-08-04T00:05:06.152Z,93.88
2022-08-04T00:07:53.019Z,94.17
2022-08-04T00:10:22.305Z,93.81
2022-08-04T00:12:52.314Z,93.64
2022-08-04T00:15:21.438Z,93.63
2022-08-04T00:17:57.497Z,93.61
2022-08-04T00:20:33.602Z,93.61
2022-08-04T00:23:06.479Z,93.40
2022-08-04T00:25:41.455Z,93.35
2022-08-04T00:28:11.921Z,93.55
2022-08-04T00:30:42.545Z,93.30
2022-08-04T00:33:11.897Z,93.25
2022-08-04T00:35:42.475Z,93.09
2022-08-04T00:38:11.325Z,92.79
2022-08-04T00:41:08.599Z,92.76
2022-08-04T00:43:52.370Z,93.09
2022-08-04T00:46:33.657Z,93.27
2022-08-04T00:49:50.797Z,93.36
2022-08-04T00:52:34.381Z,93.69
2022-08-04T00:55:58.896Z,93.84
2022-08-04T00:59:06.296Z,93.90
2022-08-04T01:01:49.987Z,94.09
2022-08-04T01:04:41.160Z,94.20
2022-08-04T01:07:27.419Z,94.21
2022-08-04T01:10:35.279Z,94.26
2022-08-04T01:13:32.414Z,94.27
2022-08-04T01:16:05.314Z,93.95
2022-08-04T01:18:52.185Z,93.97
2022-08-04T01:21:53.114Z,94.28
2022-08-04T01:24:42.746Z,94.49
2022-08-04T01:28:06.359Z,94.51
2022-08-04T01:30:36.538Z,94.51
2022-08-04T01:33:11.091Z,94.67
2022-08-04T01:35:56.210Z,94.62
2022-08-04T01:38:36.929Z,94.81
2022-08-04T01:41:15.918Z,94.67
2022-08-04T01:43:48.273Z,94.62
2022-08-04T01:46:18.522Z,94.47
2022-08-04T01:48:48.961Z,94.36
2022-08-04T01:51:18.031Z,94.17
2022-08-04T01:53:47.463Z,94.25
2022-08-04T01:56:17.161Z,94.38
2022-08-04T01:58:46.368Z,94.47
2022-08-04T02:01:16.067Z,94.64
2022-08-04T02:04:21.833Z,94.80
2022-08-04T02:06:31.614Z,95.05
2022-08-04T02:09:35.243Z,95.08
2022-08-04T02:12:17.756Z,95.15
2022-08-04T02:15:04.718Z,95.18
2022-08-04T02:17:52.537Z,95.29
2022-08-04T02:20:38.558Z,95.36
2022-08-04T02:23:11.748Z,95.44
2022-08-04T02:25:46.921Z,95.43
2022-08-04T02:28:42.626Z,95.37
2022-08-04T02:31:22.458Z,95.47
2022-08-04T02:34:21.833Z,95.18
2022-08-04T02:36:51.750Z,95.19
2022-08-04T02:39:21.600Z,95.51
2022-08-04T02:41:50.517Z,95.74
2022-08-04T02:44:23.212Z,95.78
2022-08-04T02:46:53.533Z,95.85
2022-08-04T02:49:23.204Z,95.89
2022-08-04T02:51:54.831Z,95.96
2022-08-04T02:54:32.670Z,96.06
2022-08-04T02:57:04.470Z,96.16
2022-08-04T02:59:42.156Z,96.01
2022-08-04T03:02:11.440Z,95.86
2022-08-04T03:05:01.127Z,95.58
2022-08-04T03:08:03.265Z,95.83
2022-08-04T03:11:22.129Z,95.80
2022-08-04T03:14:25.821Z,95.92
2022-08-04T03:17:09.402Z,95.85
2022-08-04T03:20:24.130Z,95.88
2022-08-04T03:23:18.105Z,95.80
2022-08-04T03:26:03.895Z,95.86
2022-08-04T03:29:11.934Z,96.01
2022-08-04T03:32:20.320Z,95.74
2022-08-04T03:35:24.055Z,95.73
2022-08-04T03:38:13.754Z,95.80
2022-08-04T03:41:00.485Z,95.82
2022-08-04T03:43:57.180Z,95.55
2022-08-04T03:46:36.640Z,95.57
2022-08-04T03:49:11.058Z,95.62
2022-08-04T03:52:38.670Z,95.67
2022-08-04T03:55:47.010Z,95.47
2022-08-04T03:58:37.007Z,95.16
2022-08-04T04:02:02.846Z,95.24
2022-08-04T04:04:41.494Z,95.23
2022-08-04T04:07:42.388Z,95.29
2022-08-04T04:10:31.769Z,95.21
2022-08-04T04:13:21.189Z,95.19
2022-08-04T04:16:26.391Z,95.12
2022-08-04T04:19:32.247Z,94.41
2022-08-04T04:22:22.734Z,94.06
2022-08-04T04:25:21.840Z,93.46
2022-08-04T04:28:45.507Z,93.11
2022-08-04T04:31:48.214Z,92.86
2022-08-04T04:34:53.440Z,92.76
2022-08-04T04:38:08.774Z,92.26
2022-08-04T04:41:06.529Z,91.82
2022-08-04T04:43:52.701Z,91.50
2022-08-04T04:46:40.726Z,91.68
2022-08-04T04:49:27.875Z,91.92
2022-08-04T04:52:11.440Z,91.85
2022-08-04T04:54:54.544Z,91.51
2022-08-04T04:57:54.877Z,91.44
2022-08-04T05:00:02.703Z,91.33
2022-08-04T05:03:00.133Z,90.93
2022-08-04T05:05:40.563Z,90.81
2022-08-04T05:08:45.551Z,90.89
2022-08-04T05:11:48.091Z,90.72
2022-08-04T05:14:41.352Z,90.76
2022-08-04T05:17:22.753Z,90.92
2022-08-04T05:20:29.894Z,90.90
2022-08-04T05:23:03.272Z,91.05
2022-08-04T05:25:59.659Z,90.85
2022-08-04T05:28:43.475Z,90.89
2022-08-04T05:31:20.491Z,90.82
2022-08-04T05:34:04.399Z,90.84
2022-08-04T05:36:48.974Z,90.99
2022-08-04T05:39:25.357Z,91.05
2022-08-04T05:41:55.749Z,91.10
2022-08-04T05:44:26.233Z,91.13
2022-08-04T05:46:59.345Z,90.69
2022-08-04T05:49:30.072Z,90.33
2022-08-04T05:52:03.785Z,90.09
2022-08-04T05:54:34.098Z,89.82
2022-08-04T05:57:05.290Z,89.70
2022-08-04T05:59:38.697Z,89.68
2022-08-04T06:02:08.913Z,89.58
2022-08-04T06:04:40.263Z,89.42
2022-08-04T06:07:11.266Z,89.27
2022-08-04T06:09:41.798Z,89.19
2022-08-04T06:12:19.680Z,89.15
2022-08-04T06:14:52.964Z,88.86
2022-08-04T06:18:33.814Z,88.94
2022-08-04T06:20:19.956Z,89.09
2022-08-04T06:22:41.759Z,89.04
2022-08-04T06:25:13.013Z,88.73
2022-08-04T06:27:41.849Z,87.92
2022-08-04T06:30:13.303Z,87.17
2022-08-04T06:32:51.160Z,85.19
2022-08-04T06:35:22.657Z,84.68
2022-08-04T06:37:55.616Z,82.79
2022-08-04T06:40:31.122Z,81.91
2022-08-04T06:42:56.119Z,80.67
2022-08-04T06:45:25.844Z,79.83
2022-08-04T06:47:55.354Z,79.61
2022-08-04T06:51:26.316Z,80.23
2022-08-04T06:52:55.676Z,80.34
2022-08-04T06:55:25.588Z,80.21
2022-08-04T06:57:58.460Z,80.12
2022-08-04T07:00:26.303Z,80.04
2022-08-04T07:02:58.209Z,79.89
2022-08-04T07:05:27.741Z,80.50
2022-08-04T07:07:58.712Z,80.55
2022-08-04T07:10:28.419Z,80.58
2022-08-04T07:12:58.158Z,80.81
2022-08-04T07:15:27.520Z,80.93
2022-08-04T07:17:59.245Z,80.96
2022-08-04T07:20:30.440Z,80.28
2022-08-04T07:23:01.477Z,80.13
2022-08-04T07:25:59.570Z,80.00
2022-08-04T07:28:01.987Z,79.34
2022-08-04T07:30:31.488Z,78.94
2022-08-04T07:33:00.891Z,77.95
2022-08-04T07:36:05.090Z,76.92
2022-08-04T07:38:01.101Z,76.72
2022-08-04T07:40:31.069Z,75.83
2022-08-04T07:43:00.583Z,75.80
2022-08-04T07:45:30.133Z,75.35
2022-08-04T07:48:04.381Z,75.67
2022-08-04T07:50:31.768Z,75.11
2022-08-04T07:53:52.720Z,75.10
2022-08-04T07:55:33.363Z,74.77
2022-08-04T07:58:02.333Z,74.54
2022-08-04T08:00:31.441Z,74.23
2022-08-04T08:03:00.253Z,74.51
2022-08-04T08:05:29.924Z,73.97
2022-08-04T08:07:59.128Z,73.90
2022-08-04T08:10:28.703Z,73.99
2022-08-04T08:12:59.391Z,73.71
2022-08-04T08:15:28.816Z,73.66
2022-08-04T08:18:00.834Z,73.57
2022-08-04T08:20:31.318Z,73.15
2022-08-04T08:23:01.357Z,72.31
2022-08-04T08:25:35.567Z,71.99
2022-08-04T08:28:06.242Z,71.51
2022-08-04T08:30:35.120Z,71.66
2022-08-04T08:33:10.013Z,71.14
2022-08-04T08:36:18.461Z,71.21
2022-08-04T08:39:14.232Z,71.18
2022-08-04T08:42:39.673Z,71.22
2022-08-04T08:45:19.248Z,70.32
2022-08-04T08:48:05.975Z,70.70
2022-08-04T08:50:56.725Z,70.18
2022-08-04T08:54:01.876Z,69.69
2022-08-04T08:56:47.996Z,69.44
2022-08-04T08:59:34.411Z,70.08
2022-08-04T09:02:30.522Z,68.91
2022-08-04T09:05:43.658Z,68.36
2022-08-04T09:08:30.365Z,67.04
2022-08-04T09:11:04.404Z,65.28
2022-08-04T09:13:41.658Z,65.35
2022-08-04T09:16:28.954Z,64.41
2022-08-04T09:19:37.239Z,62.95
2022-08-04T09:22:03.164Z,62.35
2022-08-04T09:25:11.756Z,62.71
2022-08-04T09:27:57.470Z,62.92
2022-08-04T09:31:01.641Z,63.02
2022-08-04T09:33:44.841Z,62.70
2022-08-04T09:36:33.441Z,61.73
2022-08-04T09:39:51.845Z,62.90
2022-08-04T09:42:29.416Z,63.06
2022-08-04T09:45:26.579Z,63.29
2022-08-04T09:48:00.876Z,63.24
2022-08-04T09:50:39.005Z,62.89
2022-08-04T09:53:31.968Z,63.25
2022-08-04T09:56:13.137Z,63.60
2022-08-04T09:58:59.401Z,62.35
2022-08-04T10:01:30.021Z,62.06
2022-08-04T10:04:03.963Z,61.66
2022-08-04T10:06:59.532Z,61.92
2022-08-04T10:09:37.038Z,61.73
2022-08-04T10:12:32.174Z,61.91
2022-08-04T10:15:13.193Z,61.90
2022-08-04T10:18:13.869Z,60.95
2022-08-04T10:21:10.156Z,61.24
2022-08-04T10:23:55.867Z,61.34
2022-08-04T10:26:52.133Z,61.32
2022-08-04T10:29:40.660Z,61.55
2022-08-04T10:32:42.997Z,61.45
2022-08-04T10:35:14.775Z,60.40
2022-08-04T10:38:12.967Z,60.83
2022-08-04T10:40:48.384Z,61.26
2022-08-04T10:43:37.683Z,61.81
2022-08-04T10:46:13.533Z,61.64
2022-08-04T10:49:10.323Z,61.45
2022-08-04T10:51:58.197Z,61.52
2022-08-04T10:55:05.508Z,61.77
2022-08-04T10:57:53.502Z,61.37
2022-08-04T11:00:27.880Z,60.79
2022-08-04T11:03:11.060Z,60.88
2022-08-04T11:06:02.908Z,60.95
2022-08-04T11:08:38.979Z,60.87
2022-08-04T11:12:01.026Z,60.95
2022-08-04T11:14:18.831Z,60.75
2022-08-04T11:16:58.772Z,63.67
2022-08-04T11:19:53.934Z,65.83
2022-08-04T11:22:26.817Z,69.12
2022-08-04T11:25:11.513Z,75.50
2022-08-04T11:27:51.462Z,79.86
2022-08-04T11:30:22.138Z,84.12
2022-08-04T11:33:20.272Z,87.45
2022-08-04T11:36:07.751Z,89.96
2022-08-04T11:39:04.601Z,92.17
2022-08-04T11:41:55.544Z,93.96
2022-08-04T11:45:07.785Z,94.26
2022-08-04T11:48:01.135Z,94.20
2022-08-04T11:50:54.004Z,94.20
2022-08-04T11:53:28.394Z,94.45
2022-08-04T11:56:07.909Z,94.90
2022-08-04T11:58:32.696Z,94.44
2022-08-04T12:01:28.207Z,91.61
2022-08-04T12:04:18.399Z,90.89
2022-08-04T12:07:28.911Z,88.74
2022-08-04T12:10:07.986Z,85.20
2022-08-04T12:12:50.075Z,86.50
2022-08-04T12:15:30.744Z,86.59
2022-08-04T12:18:37.415Z,85.84
2022-08-04T12:21:15.374Z,85.93
2022-08-04T12:23:46.357Z,83.38
2022-08-04T12:26:21.853Z,84.15
2022-08-04T12:29:09.682Z,84.18
2022-08-04T12:31:57.093Z,85.33
2022-08-04T12:34:35.612Z,84.94
2022-08-04T12:37:33.275Z,86.19
2022-08-04T12:40:29.235Z,85.96
2022-08-04T12:43:15.378Z,85.59
2022-08-04T12:45:54.094Z,86.72
2022-08-04T12:48:24.512Z,87.73
2022-08-04T12:50:55.224Z,88.95
2022-08-04T12:53:34.090Z,88.79
2022-08-04T12:56:05.468Z,89.06
2022-08-04T12:58:43.698Z,89.89
2022-08-04T13:02:09.628Z,90.98
2022-08-04T13:03:58.665Z,90.81
2022-08-04T13:06:33.238Z,90.80
2022-08-04T13:09:17.542Z,90.79
2022-08-04T13:12:05.318Z,90.24
2022-08-04T13:14:37.457Z,88.21
2022-08-04T13:17:08.679Z,86.61
2022-08-04T13:19:41.175Z,87.62
2022-08-04T13:22:09.919Z,88.95
2022-08-04T13:24:56.643Z,89.26
2022-08-04T13:27:18.985Z,88.95
2022-08-04T13:30:00.411Z,88.91
2022-08-04T13:32:20.338Z,89.13
2022-08-04T13:34:52.504Z,88.51
2022-08-04T13:37:26.976Z,88.28
2022-08-04T13:39:57.787Z,88.37
2022-08-04T13:42:28.118Z,88.11
2022-08-04T13:45:02.557Z,87.09
2022-08-04T13:47:37.188Z,87.09
2022-08-04T13:50:30.116Z,87.04
2022-08-04T13:53:01.056Z,87.78
2022-08-04T13:55:37.955Z,88.34
2022-08-04T13:58:25.243Z,88.31
2022-08-04T14:00:57.209Z,88.06
2022-08-04T14:03:32.380Z,87.77
2022-08-04T14:06:21.377Z,86.82
2022-08-04T14:09:04.342Z,86.12
2022-08-04T14:12:10.731Z,86.04
2022-08-04T14:14:29.155Z,81.38
2022-08-04T14:17:18.020Z,81.21
2022-08-04T14:20:00.652Z,82.42
2022-08-04T14:22:34.478Z,82.19
2022-08-04T14:25:16.780Z,82.02
2022-08-04T14:27:51.512Z,82.09
2022-08-04T14:30:31.618Z,81.69
2022-08-04T14:34:01.091Z,78.80
2022-08-04T14:35:49.976Z,77.92
2022-08-04T14:38:11.543Z,77.86
2022-08-04T14:40:42.076Z,77.58
2022-08-04T14:43:14.198Z,77.29
2022-08-04T14:45:54.646Z,77.20
2022-08-04T14:48:21.929Z,76.57
2022-08-04T14:50:52.792Z,76.54
2022-08-04T14:53:29.548Z,75.36
2022-08-04T14:56:00.202Z,75.99
2022-08-04T14:58:38.974Z,74.74
2022-08-04T15:01:10.234Z,74.57
2022-08-04T15:03:52.383Z,73.73
2022-08-04T15:06:21.570Z,73.20
2022-08-04T15:08:51.021Z,74.00
2022-08-04T15:11:23.346Z,78.11
2022-08-04T15:13:55.191Z,78.42
2022-08-04T15:16:26.016Z,81.29
2022-08-04T15:18:57.034Z,82.46
2022-08-04T15:21:28.128Z,84.22
2022-08-04T15:23:58.680Z,85.04
2022-08-04T15:26:35.730Z,86.13
2022-08-04T15:29:17.680Z,87.20
2022-08-04T15:32:06.131Z,87.01
2022-08-04T15:34:19.311Z,87.71
2022-08-04T15:36:56.370Z,87.66
2022-08-04T15:39:47.915Z,88.65
2022-08-04T15:42:34.192Z,88.92
2022-08-04T15:45:23.838Z,87.74
2022-08-04T15:48:09.202Z,86.87
2022-08-04T15:51:03.071Z,86.51
2022-08-04T15:54:02.346Z,86.37
2022-08-04T15:56:34.597Z,87.10
2022-08-04T15:59:05.070Z,87.11
2022-08-04T16:01:35.112Z,87.48
2022-08-04T16:04:23.891Z,86.65
2022-08-04T16:06:55.289Z,85.95
2022-08-04T16:09:45.128Z,86.43
2022-08-04T16:11:57.910Z,85.82
2022-08-04T16:14:36.033Z,85.65
2022-08-04T16:17:18.074Z,85.73
2022-08-04T16:20:04.298Z,85.81
2022-08-04T16:22:40.113Z,85.73
2022-08-04T16:25:10.559Z,86.02
2022-08-04T16:27:43.412Z,85.48
2022-08-04T16:30:15.359Z,83.77
2022-08-04T16:32:49.067Z,83.61
2022-08-04T16:35:26.285Z,83.61
2022-08-04T16:38:17.679Z,83.66
2022-08-04T16:40:49.389Z,83.83
2022-08-04T16:43:18.937Z,83.74
2022-08-04T16:46:05.210Z,83.22
2022-08-04T16:48:35.802Z,83.17
2022-08-04T16:51:10.170Z,82.71
2022-08-04T16:53:57.973Z,82.28
2022-08-04T16:56:18.112Z,82.06
2022-08-04T16:58:54.214Z,82.12
2022-08-04T17:01:33.481Z,82.05
2022-08-04T17:03:57.678Z,82.28
2022-08-04T17:06:26.993Z,82.23
2022-08-04T17:08:57.243Z,82.22
2022-08-04T17:11:32.851Z,82.02
2022-08-04T17:14:05.644Z,81.79
2022-08-04T17:16:38.808Z,81.60
2022-08-04T17:19:23.899Z,81.55
2022-08-04T17:21:40.138Z,81.24
2022-08-04T17:24:14.838Z,81.16
2022-08-04T17:26:45.321Z,81.17
2022-08-04T17:29:18.244Z,81.22
2022-08-04T17:31:46.684Z,80.94
2022-08-04T17:34:20.371Z,80.51
2022-08-04T17:36:50.776Z,80.62
2022-08-04T17:39:25.076Z,80.78
2022-08-04T17:41:57.480Z,80.93
2022-08-04T17:44:38.681Z,81.28
2022-08-04T17:47:19.694Z,81.42
2022-08-04T17:49:53.236Z,81.41
2022-08-04T17:52:39.672Z,81.73
2022-08-04T17:57:35.583Z,82.24
2022-08-04T18:00:06.348Z,82.55
2022-08-04T18:02:39.180Z,82.83
2022-08-04T18:05:11.518Z,82.81
2022-08-04T18:08:42.830Z,82.94
2022-08-04T18:10:30.692Z,83.26
2022-08-04T18:12:50.062Z,83.29
2022-08-04T18:15:25.215Z,83.40
2022-08-04T18:18:20.976Z,83.61
2022-08-04T18:20:31.107Z,83.76
2022-08-04T18:23:03.115Z,83.84
2022-08-04T18:25:51.403Z,84.10
2022-08-04T18:28:13.801Z,84.23
2022-08-04T18:30:54.829Z,84.35
2022-08-04T18:33:37.581Z,84.59
2022-08-04T18:36:33.751Z,84.85
2022-08-04T18:38:22.577Z,85.06
2022-08-04T18:40:52.690Z,85.49
2022-08-04T18:43:27.910Z,85.76
2022-08-04T18:45:53.892Z,86.07
2022-08-04T18:48:36.056Z,86.49
2022-08-04T18:51:09.386Z,86.84
2022-08-04T18:53:35.761Z,86.83
2022-08-04T18:56:03.931Z,86.89
2022-08-04T18:58:36.056Z,87.12
2022-08-04T19:01:13.527Z,87.18
2022-08-04T19:03:40.895Z,87.39
2022-08-04T19:06:13.828Z,87.65
2022-08-04T19:08:45.601Z,87.85
2022-08-04T19:11:37.314Z,87.97
2022-08-04T19:16:20.987Z,88.23
2022-08-04T19:18:50.733Z,88.60
2022-08-04T19:21:20.914Z,88.84
2022-08-04T19:24:28.245Z,88.98
2022-08-04T19:26:28.073Z,89.11
2022-08-04T19:28:56.327Z,89.37
2022-08-04T19:34:04.747Z,89.55
2022-08-04T19:36:30.948Z,89.55
2022-08-04T19:39:11.308Z,89.73
2022-08-04T19:42:05.819Z,89.87
2022-08-04T19:44:09.197Z,89.97
2022-08-04T19:46:39.253Z,90.14
2022-08-04T19:49:08.717Z,90.28
2022-08-04T19:51:40.212Z,90.42
2022-08-04T19:54:17.061Z,90.69
2022-08-04T19:56:44.888Z,90.92
2022-08-04T19:59:16.859Z,91.26
2022-08-04T20:01:47.435Z,91.37
2022-08-04T20:04:17.839Z,91.51
2022-08-04T20:06:50.862Z,91.54
2022-08-04T20:09:25.544Z,91.71
2022-08-04T20:11:56.748Z,91.93
2022-08-04T20:14:31.410Z,91.94
2022-08-04T20:17:00.415Z,92.07
2022-08-04T20:19:30.306Z,92.19
2022-08-04T20:22:00.142Z,92.17
2022-08-04T20:27:07.796Z,91.69
2022-08-04T20:29:40.539Z,91.37
2022-08-04T20:32:09.845Z,91.31
2022-08-04T20:34:40.088Z,91.04
2022-08-04T20:37:10.815Z,90.59
2022-08-04T20:39:42.737Z,90.35
2022-08-04T20:42:12.565Z,90.31
2022-08-04T20:44:46.964Z,90.28
2022-08-04T20:47:17.190Z,90.23
2022-08-04T20:49:47.978Z,89.98
2022-08-04T20:54:49.322Z,89.67
2022-08-04T20:57:48.436Z,89.73
2022-08-04T20:59:59.817Z,89.71
2022-08-04T21:02:24.934Z,89.53
2022-08-04T21:04:56.982Z,89.44
2022-08-04T21:07:26.945Z,89.55
2022-08-04T21:09:56.811Z,89.78
2022-08-04T21:12:27.767Z,89.91
2022-08-04T21:15:01.137Z,90.03
2022-08-04T21:17:56.777Z,89.98
2022-08-04T21:20:03.384Z,89.84
2022-08-04T21:22:33.408Z,90.01
2022-08-04T21:25:03.180Z,90.16
2022-08-04T21:27:39.363Z,90.17
2022-08-04T21:30:06.220Z,90.22
2022-08-04T21:32:37.781Z,90.37
2022-08-04T21:35:10.596Z,90.34
2022-08-04T21:37:58.236Z,90.34
2022-08-04T21:40:15.253Z,90.37
2022-08-04T21:42:50.159Z,90.34
2022-08-04T21:45:16.189Z,90.44
2022-08-04T21:47:49.487Z,90.51
2022-08-04T21:50:19.846Z,90.67
2022-08-04T21:52:51.291Z,90.74
2022-08-04T21:55:21.282Z,90.63
2022-08-04T21:57:51.358Z,90.54
2022-08-04T22:00:21.411Z,90.49
2022-08-04T22:02:53.279Z,90.25
2022-08-04T22:05:24.013Z,90.24
2022-08-04T22:07:54.025Z,90.14
2022-08-04T22:10:32.697Z,90.05
2022-08-04T22:12:54.915Z,90.06
2022-08-04T22:16:03.507Z,89.97
2022-08-04T22:17:59.541Z,89.91
2022-08-04T22:20:30.268Z,90.20
2022-08-04T22:23:15.749Z,90.28
2022-08-04T22:25:32.395Z,90.24
2022-08-04T22:28:04.336Z,90.27
2022-08-04T22:30:37.536Z,90.37
2022-08-04T22:33:09.708Z,90.34
2022-08-04T22:35:44.104Z,90.06
2022-08-04T22:38:28.948Z,90.14
2022-08-04T22:40:47.486Z,89.91
2022-08-04T22:43:31.997Z,89.82
2022-08-04T22:45:48.368Z,89.96
2022-08-04T22:48:18.442Z,89.95
2022-08-04T22:50:50.065Z,89.94
2022-08-04T22:53:20.390Z,90.00
2022-08-04T22:56:06.694Z,90.03
2022-08-04T22:58:21.983Z,89.87
2022-08-04T23:00:54.100Z,89.86
2022-08-04T23:03:37.361Z,90.10
2022-08-04T23:05:57.490Z,90.11
2022-08-04T23:08:27.397Z,90.00
2022-08-04T23:10:59.749Z,89.87
2022-08-04T23:13:31.872Z,89.67
2022-08-04T23:16:09.988Z,89.67
2022-08-04T23:18:40.243Z,89.68
2022-08-04T23:21:10.942Z,89.61
2022-08-04T23:23:45.657Z,89.55
2022-08-04T23:26:14.968Z,89.58
2022-08-04T23:28:47.084Z,89.69
2022-08-04T23:31:16.749Z,89.68
2022-08-04T23:33:50.679Z,89.68
2022-08-04T23:36:16.852Z,89.74
2022-08-04T23:38:47.007Z,89.82
2022-08-04T23:41:18.477Z,89.93
2022-08-04T23:43:55.768Z,90.12
2022-08-04T23:46:21.140Z,90.21
2022-08-04T23:48:52.220Z,90.39
2022-08-04T23:51:22.012Z,90.46
2022-08-04T23:54:03.266Z,90.26
2022-08-04T23:56:23.903Z,90.36
2022-08-04T23:58:55.546Z,90.44
